AUA26Z EDDB-LOWW
Flight info
| Callsign | AUA26Z |
|---|---|
| Flight time | 1h 1m |
| Altitude | 31000 |
| Route | LUROS3Q/06R LUROS M725 HDO DCT EVIKU DCT BITSI DCT MIKOV MIKOV8W |
| Aircraft | A320/M-SDE3FGHIRWY/LB1 |
Departure
| Time | 2026-05-06 18:42 |
|---|---|
| Airport | Berlin Brandenburg Airport (EDDB) |
Arrival
| Time | 2026-05-06 19:43 |
|---|---|
| Airport | Vienna International Airport (LOWW) |
| Time | Latitude | Longitude | Altitude | Speed | Heading |
|---|---|---|---|---|---|
| 2026-05-06 18:04 | 52.36284 | 13.50659 | 155 ft | 0 kts | 69° |
| 2026-05-06 18:32 | 52.36282 | 13.50648 | 155 ft | 4 kts | 69° |
| 2026-05-06 18:32 | 52.36272 | 13.50607 | 155 ft | 4 kts | 69° |
| 2026-05-06 18:32 | 52.36263 | 13.50567 | 155 ft | 4 kts | 78° |
| 2026-05-06 18:33 | 52.36263 | 13.50527 | 156 ft | 4 kts | 122° |
| 2026-05-06 18:33 | 52.36276 | 13.50507 | 155 ft | 0 kts | 159° |
| 2026-05-06 18:35 | 52.36269 | 13.50511 | 155 ft | 5 kts | 159° |
| 2026-05-06 18:35 | 52.36224 | 13.50495 | 155 ft | 10 kts | 198° |
| 2026-05-06 18:36 | 52.36193 | 13.50474 | 155 ft | 7 kts | 204° |
| 2026-05-06 18:36 | 52.36171 | 13.50458 | 155 ft | 4 kts | 204° |
| 2026-05-06 18:36 | 52.36144 | 13.50441 | 155 ft | 5 kts | 196° |
| 2026-05-06 18:36 | 52.36081 | 13.50472 | 155 ft | 12 kts | 158° |
| 2026-05-06 18:37 | 52.36005 | 13.50521 | 155 ft | 11 kts | 159° |
| 2026-05-06 18:37 | 52.35937 | 13.50564 | 155 ft | 10 kts | 159° |
| 2026-05-06 18:37 | 52.35867 | 13.50607 | 155 ft | 13 kts | 159° |
| 2026-05-06 18:37 | 52.35777 | 13.50613 | 156 ft | 15 kts | 220° |
| 2026-05-06 18:38 | 52.35727 | 13.50428 | 155 ft | 20 kts | 249° |
| 2026-05-06 18:38 | 52.35669 | 13.50185 | 155 ft | 25 kts | 249° |
| 2026-05-06 18:38 | 52.35602 | 13.49903 | 155 ft | 28 kts | 248° |
| 2026-05-06 18:38 | 52.35529 | 13.49599 | 156 ft | 30 kts | 249° |
| 2026-05-06 18:39 | 52.35456 | 13.49288 | 154 ft | 29 kts | 249° |
| 2026-05-06 18:39 | 52.35381 | 13.48972 | 154 ft | 31 kts | 249° |
| 2026-05-06 18:39 | 52.35311 | 13.48676 | 154 ft | 18 kts | 248° |
| 2026-05-06 18:40 | 52.35257 | 13.48490 | 154 ft | 7 kts | 219° |
| 2026-05-06 18:40 | 52.35214 | 13.48484 | 154 ft | 7 kts | 165° |
| 2026-05-06 18:40 | 52.35143 | 13.48528 | 154 ft | 14 kts | 158° |
| 2026-05-06 18:40 | 52.35093 | 13.48690 | 154 ft | 20 kts | 98° |
| 2026-05-06 18:41 | 52.35070 | 13.48948 | 154 ft | 26 kts | 98° |
| 2026-05-06 18:41 | 52.35117 | 13.49290 | 154 ft | 49 kts | 69° |
| 2026-05-06 18:41 | 52.35341 | 13.50203 | 155 ft | 120 kts | 68° |
| 2026-05-06 18:41 | 52.35702 | 13.51695 | 462 ft | 148 kts | 68° |
| 2026-05-06 18:42 | 52.35623 | 13.53325 | 1208 ft | 156 kts | 121° |
| 2026-05-06 18:42 | 52.34858 | 13.54701 | 1865 ft | 171 kts | 133° |
| 2026-05-06 18:42 | 52.33914 | 13.56090 | 2324 ft | 193 kts | 135° |
| 2026-05-06 18:42 | 52.32873 | 13.57628 | 2974 ft | 206 kts | 136° |
| 2026-05-06 18:43 | 52.31840 | 13.59224 | 3833 ft | 210 kts | 133° |
| 2026-05-06 18:43 | 52.31072 | 13.61299 | 4607 ft | 220 kts | 107° |
| 2026-05-06 18:43 | 52.30991 | 13.63909 | 4937 ft | 242 kts | 76° |
| 2026-05-06 18:43 | 52.31497 | 13.66573 | 4994 ft | 246 kts | 71° |
| 2026-05-06 18:44 | 52.32041 | 13.69239 | 5012 ft | 248 kts | 71° |
| 2026-05-06 18:44 | 52.32588 | 13.71957 | 5702 ft | 252 kts | 72° |
| 2026-05-06 18:44 | 52.32895 | 13.74799 | 6631 ft | 261 kts | 87° |
| 2026-05-06 18:44 | 52.32833 | 13.77906 | 7141 ft | 284 kts | 94° |
| 2026-05-06 18:45 | 52.32710 | 13.81198 | 7955 ft | 294 kts | 95° |
| 2026-05-06 18:45 | 52.32580 | 13.84563 | 8930 ft | 299 kts | 95° |
| 2026-05-06 18:45 | 52.32450 | 13.87982 | 9896 ft | 304 kts | 96° |
| 2026-05-06 18:45 | 52.32317 | 13.91451 | 10779 ft | 308 kts | 96° |
| 2026-05-06 18:46 | 52.32184 | 13.94966 | 11680 ft | 312 kts | 96° |
| 2026-05-06 18:46 | 52.32049 | 13.98529 | 12576 ft | 316 kts | 96° |
| 2026-05-06 18:46 | 52.31784 | 14.02103 | 13435 ft | 318 kts | 109° |
| 2026-05-06 18:46 | 52.30881 | 14.05364 | 14218 ft | 315 kts | 129° |
| 2026-05-06 18:47 | 52.29381 | 14.07952 | 14848 ft | 319 kts | 147° |
| 2026-05-06 18:47 | 52.27366 | 14.09637 | 15044 ft | 335 kts | 168° |
| 2026-05-06 18:47 | 52.25042 | 14.10293 | 15195 ft | 355 kts | 175° |
| 2026-05-06 18:47 | 52.22518 | 14.10821 | 15325 ft | 376 kts | 176° |
| 2026-05-06 18:48 | 52.19871 | 14.11350 | 15677 ft | 388 kts | 175° |
| 2026-05-06 18:48 | 52.17165 | 14.11891 | 16258 ft | 394 kts | 175° |
| 2026-05-06 18:48 | 52.14433 | 14.12441 | 16895 ft | 397 kts | 175° |
| 2026-05-06 18:48 | 52.11684 | 14.13004 | 17567 ft | 400 kts | 175° |
| 2026-05-06 18:49 | 52.08914 | 14.13579 | 18187 ft | 403 kts | 175° |
| 2026-05-06 18:49 | 52.06124 | 14.14163 | 18732 ft | 406 kts | 175° |
| 2026-05-06 18:49 | 52.03315 | 14.14747 | 19283 ft | 408 kts | 175° |
| 2026-05-06 18:49 | 52.00493 | 14.15329 | 19848 ft | 410 kts | 175° |
| 2026-05-06 18:50 | 51.97652 | 14.15910 | 20409 ft | 412 kts | 175° |
| 2026-05-06 18:50 | 51.94800 | 14.16489 | 20948 ft | 414 kts | 175° |
| 2026-05-06 18:50 | 51.91935 | 14.17070 | 21471 ft | 416 kts | 175° |
| 2026-05-06 18:50 | 51.89051 | 14.17655 | 21971 ft | 418 kts | 175° |
| 2026-05-06 18:51 | 51.86160 | 14.18243 | 22472 ft | 420 kts | 175° |
| 2026-05-06 18:51 | 51.83248 | 14.18836 | 22960 ft | 423 kts | 175° |
| 2026-05-06 18:51 | 51.80356 | 14.19428 | 23423 ft | 425 kts | 175° |
| 2026-05-06 18:51 | 51.77410 | 14.20030 | 23816 ft | 427 kts | 175° |
| 2026-05-06 18:52 | 51.74444 | 14.20632 | 24216 ft | 429 kts | 175° |
| 2026-05-06 18:52 | 51.71477 | 14.21232 | 24594 ft | 431 kts | 176° |
| 2026-05-06 18:52 | 51.68500 | 14.21833 | 24977 ft | 432 kts | 176° |
| 2026-05-06 18:52 | 51.65513 | 14.22437 | 25339 ft | 434 kts | 176° |
| 2026-05-06 18:53 | 51.62512 | 14.23041 | 25717 ft | 435 kts | 176° |
| 2026-05-06 18:53 | 51.59505 | 14.23645 | 26079 ft | 436 kts | 176° |
| 2026-05-06 18:53 | 51.56485 | 14.24254 | 26434 ft | 438 kts | 176° |
| 2026-05-06 18:53 | 51.53462 | 14.24863 | 26769 ft | 440 kts | 176° |
| 2026-05-06 18:54 | 51.50422 | 14.25478 | 27097 ft | 441 kts | 176° |
| 2026-05-06 18:54 | 51.47368 | 14.26093 | 27460 ft | 442 kts | 176° |
| 2026-05-06 18:54 | 51.44322 | 14.26705 | 27934 ft | 440 kts | 176° |
| 2026-05-06 18:54 | 51.41288 | 14.27308 | 28418 ft | 438 kts | 176° |
| 2026-05-06 18:55 | 51.38270 | 14.27907 | 28853 ft | 437 kts | 176° |
| 2026-05-06 18:55 | 51.35256 | 14.28506 | 29295 ft | 436 kts | 176° |
| 2026-05-06 18:55 | 51.32245 | 14.29109 | 29766 ft | 435 kts | 176° |
| 2026-05-06 18:55 | 51.29286 | 14.29699 | 30175 ft | 434 kts | 176° |
| 2026-05-06 18:56 | 51.26294 | 14.30293 | 30568 ft | 433 kts | 176° |
| 2026-05-06 18:56 | 51.23306 | 14.30885 | 30761 ft | 433 kts | 176° |
| 2026-05-06 18:56 | 51.20325 | 14.31476 | 30795 ft | 431 kts | 176° |
| 2026-05-06 18:57 | 51.14372 | 14.32646 | 30796 ft | 431 kts | 176° |
| 2026-05-06 18:57 | 51.08409 | 14.33816 | 30771 ft | 432 kts | 176° |
| 2026-05-06 18:58 | 51.02433 | 14.34989 | 30789 ft | 432 kts | 177° |
| 2026-05-06 18:58 | 50.96464 | 14.36166 | 30786 ft | 432 kts | 177° |
| 2026-05-06 18:59 | 50.90516 | 14.37732 | 30773 ft | 435 kts | 171° |
| 2026-05-06 18:59 | 50.84611 | 14.39930 | 30768 ft | 437 kts | 171° |
| 2026-05-06 19:00 | 50.78687 | 14.42130 | 30765 ft | 437 kts | 171° |
| 2026-05-06 19:00 | 50.72792 | 14.44317 | 30769 ft | 438 kts | 171° |
| 2026-05-06 19:01 | 50.66860 | 14.46506 | 30759 ft | 438 kts | 171° |
| 2026-05-06 19:01 | 50.60916 | 14.48698 | 30760 ft | 439 kts | 171° |
| 2026-05-06 19:02 | 50.54974 | 14.50878 | 30775 ft | 439 kts | 171° |
| 2026-05-06 19:02 | 50.49045 | 14.53243 | 30751 ft | 443 kts | 165° |
| 2026-05-06 19:03 | 50.43623 | 14.58036 | 30754 ft | 456 kts | 146° |
| 2026-05-06 19:03 | 50.38995 | 14.64919 | 30742 ft | 460 kts | 141° |
| 2026-05-06 19:04 | 50.34391 | 14.71898 | 30754 ft | 461 kts | 141° |
| 2026-05-06 19:04 | 50.29773 | 14.78861 | 30747 ft | 461 kts | 141° |
| 2026-05-06 19:05 | 50.25176 | 14.85777 | 30756 ft | 461 kts | 141° |
| 2026-05-06 19:05 | 50.20545 | 14.92714 | 30739 ft | 462 kts | 141° |
| 2026-05-06 19:06 | 50.15905 | 14.99661 | 30746 ft | 463 kts | 141° |
| 2026-05-06 19:06 | 50.11254 | 15.06607 | 30753 ft | 463 kts | 141° |
| 2026-05-06 19:07 | 50.06600 | 15.13543 | 30759 ft | 463 kts | 141° |
| 2026-05-06 19:07 | 50.01939 | 15.20460 | 30763 ft | 463 kts | 141° |
| 2026-05-06 19:08 | 49.97274 | 15.27358 | 30744 ft | 463 kts | 142° |
| 2026-05-06 19:08 | 49.92601 | 15.34246 | 30750 ft | 463 kts | 142° |
| 2026-05-06 19:09 | 49.87934 | 15.41129 | 30754 ft | 463 kts | 142° |
| 2026-05-06 19:09 | 49.83258 | 15.47989 | 30756 ft | 463 kts | 143° |
| 2026-05-06 19:10 | 49.78576 | 15.54825 | 30770 ft | 462 kts | 143° |
| 2026-05-06 19:10 | 49.73905 | 15.61651 | 30742 ft | 462 kts | 143° |
| 2026-05-06 19:11 | 49.70021 | 15.67311 | 30744 ft | 462 kts | 143° |
| 2026-05-06 19:11 | 49.65341 | 15.74107 | 30744 ft | 462 kts | 143° |
| 2026-05-06 19:12 | 49.60647 | 15.80892 | 30747 ft | 462 kts | 143° |
| 2026-05-06 19:12 | 49.56255 | 15.88165 | 30746 ft | 476 kts | 127° |
| 2026-05-06 19:12 | 49.54928 | 15.92911 | 30711 ft | 490 kts | 110° |
| 2026-05-06 19:13 | 49.54218 | 15.98083 | 30720 ft | 495 kts | 106° |
| 2026-05-06 19:13 | 49.52972 | 16.08462 | 30725 ft | 496 kts | 105° |
| 2026-05-06 19:13 | 49.52347 | 16.13690 | 30574 ft | 497 kts | 105° |
| 2026-05-06 19:14 | 49.51719 | 16.18930 | 30329 ft | 497 kts | 105° |
| 2026-05-06 19:14 | 49.51088 | 16.24158 | 29969 ft | 497 kts | 105° |
| 2026-05-06 19:14 | 49.50450 | 16.29386 | 29570 ft | 497 kts | 105° |
| 2026-05-06 19:14 | 49.49806 | 16.34612 | 29119 ft | 498 kts | 105° |
| 2026-05-06 19:15 | 49.49054 | 16.39796 | 28689 ft | 492 kts | 113° |
| 2026-05-06 19:15 | 49.47665 | 16.44521 | 28032 ft | 478 kts | 128° |
| 2026-05-06 19:15 | 49.45657 | 16.48422 | 27588 ft | 453 kts | 142° |
| 2026-05-06 19:15 | 49.43285 | 16.51369 | 27441 ft | 424 kts | 153° |
| 2026-05-06 19:16 | 49.40752 | 16.53401 | 27136 ft | 402 kts | 165° |
| 2026-05-06 19:16 | 49.38114 | 16.54561 | 26613 ft | 387 kts | 176° |
| 2026-05-06 19:16 | 49.35483 | 16.54986 | 25825 ft | 376 kts | 180° |
| 2026-05-06 19:16 | 49.32880 | 16.55303 | 24987 ft | 373 kts | 180° |
| 2026-05-06 19:17 | 49.30301 | 16.55612 | 24281 ft | 370 kts | 180° |
| 2026-05-06 19:17 | 49.27745 | 16.55920 | 23660 ft | 367 kts | 180° |
| 2026-05-06 19:17 | 49.25211 | 16.56232 | 23066 ft | 364 kts | 179° |
| 2026-05-06 19:17 | 49.22691 | 16.56546 | 22460 ft | 362 kts | 179° |
| 2026-05-06 19:18 | 49.20186 | 16.56858 | 21861 ft | 360 kts | 179° |
| 2026-05-06 19:18 | 49.17723 | 16.57172 | 21340 ft | 358 kts | 179° |
| 2026-05-06 19:18 | 49.15252 | 16.57490 | 20825 ft | 355 kts | 179° |
| 2026-05-06 19:18 | 49.12790 | 16.57802 | 20294 ft | 354 kts | 179° |
| 2026-05-06 19:19 | 49.10340 | 16.58114 | 19804 ft | 352 kts | 179° |
| 2026-05-06 19:19 | 49.07906 | 16.58423 | 19336 ft | 350 kts | 179° |
| 2026-05-06 19:19 | 49.05484 | 16.58730 | 18857 ft | 348 kts | 179° |
| 2026-05-06 19:19 | 49.03077 | 16.59031 | 18385 ft | 346 kts | 179° |
| 2026-05-06 19:20 | 49.00681 | 16.59328 | 17910 ft | 344 kts | 179° |
| 2026-05-06 19:20 | 48.98304 | 16.59624 | 17426 ft | 342 kts | 179° |
| 2026-05-06 19:20 | 48.95943 | 16.59918 | 16955 ft | 340 kts | 179° |
| 2026-05-06 19:20 | 48.93596 | 16.60210 | 16484 ft | 338 kts | 178° |
| 2026-05-06 19:21 | 48.91261 | 16.60502 | 16027 ft | 335 kts | 178° |
| 2026-05-06 19:21 | 48.88952 | 16.60792 | 15576 ft | 331 kts | 178° |
| 2026-05-06 19:21 | 48.86683 | 16.61080 | 15340 ft | 322 kts | 178° |
| 2026-05-06 19:21 | 48.84490 | 16.61362 | 15226 ft | 310 kts | 178° |
| 2026-05-06 19:22 | 48.82374 | 16.61633 | 15091 ft | 300 kts | 178° |
| 2026-05-06 19:22 | 48.80315 | 16.61891 | 14867 ft | 294 kts | 178° |
| 2026-05-06 19:22 | 48.78287 | 16.62212 | 14557 ft | 293 kts | 174° |
| 2026-05-06 19:22 | 48.76287 | 16.62825 | 14222 ft | 292 kts | 171° |
| 2026-05-06 19:23 | 48.74305 | 16.63480 | 13888 ft | 291 kts | 171° |
| 2026-05-06 19:23 | 48.72335 | 16.64128 | 13554 ft | 289 kts | 171° |
| 2026-05-06 19:23 | 48.70371 | 16.64769 | 13187 ft | 288 kts | 171° |
| 2026-05-06 19:23 | 48.68418 | 16.65407 | 12807 ft | 286 kts | 171° |
| 2026-05-06 19:24 | 48.66476 | 16.66045 | 12447 ft | 285 kts | 171° |
| 2026-05-06 19:24 | 48.64544 | 16.66682 | 12099 ft | 283 kts | 171° |
| 2026-05-06 19:24 | 48.62621 | 16.67315 | 11750 ft | 282 kts | 171° |
| 2026-05-06 19:24 | 48.60709 | 16.67942 | 11388 ft | 281 kts | 171° |
| 2026-05-06 19:25 | 48.58830 | 16.68558 | 11023 ft | 280 kts | 171° |
| 2026-05-06 19:25 | 48.56935 | 16.69182 | 10670 ft | 277 kts | 170° |
| 2026-05-06 19:25 | 48.55069 | 16.69840 | 10352 ft | 273 kts | 169° |
| 2026-05-06 19:25 | 48.53229 | 16.70518 | 9985 ft | 272 kts | 169° |
| 2026-05-06 19:26 | 48.51391 | 16.71203 | 9605 ft | 271 kts | 169° |
| 2026-05-06 19:26 | 48.49556 | 16.71884 | 9182 ft | 271 kts | 170° |
| 2026-05-06 19:26 | 48.47727 | 16.72560 | 8922 ft | 270 kts | 170° |
| 2026-05-06 19:26 | 48.45902 | 16.73232 | 8669 ft | 270 kts | 170° |
| 2026-05-06 19:27 | 48.44083 | 16.73900 | 8411 ft | 269 kts | 170° |
| 2026-05-06 19:27 | 48.42268 | 16.74564 | 8158 ft | 267 kts | 170° |
| 2026-05-06 19:27 | 48.40496 | 16.75213 | 8002 ft | 256 kts | 170° |
| 2026-05-06 19:27 | 48.38814 | 16.75833 | 7993 ft | 240 kts | 170° |
| 2026-05-06 19:28 | 48.37243 | 16.76412 | 7992 ft | 224 kts | 171° |
| 2026-05-06 19:28 | 48.35792 | 16.76940 | 7993 ft | 212 kts | 171° |
| 2026-05-06 19:28 | 48.34366 | 16.77452 | 7994 ft | 210 kts | 171° |
| 2026-05-06 19:28 | 48.32943 | 16.77959 | 7996 ft | 210 kts | 171° |
| 2026-05-06 19:29 | 48.31521 | 16.78467 | 7999 ft | 210 kts | 171° |
| 2026-05-06 19:29 | 48.30099 | 16.78977 | 7998 ft | 210 kts | 171° |
| 2026-05-06 19:29 | 48.28664 | 16.79267 | 7991 ft | 207 kts | 185° |
| 2026-05-06 19:29 | 48.27256 | 16.78975 | 7996 ft | 203 kts | 199° |
| 2026-05-06 19:30 | 48.25959 | 16.78138 | 8002 ft | 210 kts | 213° |
| 2026-05-06 19:30 | 48.24795 | 16.76727 | 8002 ft | 220 kts | 227° |
| 2026-05-06 19:30 | 48.23917 | 16.74833 | 8001 ft | 224 kts | 242° |
| 2026-05-06 19:30 | 48.23402 | 16.72615 | 7985 ft | 228 kts | 251° |
| 2026-05-06 19:31 | 48.23013 | 16.70310 | 7777 ft | 229 kts | 259° |
| 2026-05-06 19:31 | 48.23205 | 16.67929 | 7577 ft | 238 kts | 287° |
| 2026-05-06 19:31 | 48.25864 | 16.64862 | 7182 ft | 262 kts | 339° |
| 2026-05-06 19:32 | 48.27627 | 16.64127 | 6986 ft | 263 kts | 339° |
| 2026-05-06 19:32 | 48.29390 | 16.63407 | 6800 ft | 262 kts | 339° |
| 2026-05-06 19:32 | 48.31123 | 16.62700 | 6602 ft | 255 kts | 339° |
| 2026-05-06 19:32 | 48.32813 | 16.62001 | 6405 ft | 251 kts | 339° |
| 2026-05-06 19:33 | 48.34492 | 16.61301 | 6220 ft | 249 kts | 339° |
| 2026-05-06 19:33 | 48.36160 | 16.60599 | 6020 ft | 249 kts | 339° |
| 2026-05-06 19:33 | 48.37829 | 16.59891 | 5817 ft | 249 kts | 339° |
| 2026-05-06 19:33 | 48.39499 | 16.59184 | 5614 ft | 249 kts | 339° |
| 2026-05-06 19:34 | 48.41167 | 16.58476 | 5424 ft | 249 kts | 339° |
| 2026-05-06 19:34 | 48.42811 | 16.57780 | 5226 ft | 242 kts | 340° |
| 2026-05-06 19:34 | 48.44377 | 16.56997 | 5059 ft | 230 kts | 326° |
| 2026-05-06 19:34 | 48.45466 | 16.55363 | 4978 ft | 217 kts | 291° |
| 2026-05-06 19:35 | 48.45725 | 16.53233 | 4982 ft | 210 kts | 262° |
| 2026-05-06 19:35 | 48.45324 | 16.51136 | 4981 ft | 206 kts | 235° |
| 2026-05-06 19:35 | 48.44264 | 16.49853 | 4982 ft | 193 kts | 204° |
| 2026-05-06 19:35 | 48.43006 | 16.49305 | 4983 ft | 186 kts | 197° |
| 2026-05-06 19:36 | 48.41750 | 16.48879 | 4983 ft | 184 kts | 195° |
| 2026-05-06 19:36 | 48.40503 | 16.48472 | 4984 ft | 184 kts | 195° |
| 2026-05-06 19:36 | 48.39249 | 16.48065 | 4987 ft | 184 kts | 195° |
| 2026-05-06 19:36 | 48.37998 | 16.47656 | 4988 ft | 184 kts | 195° |
| 2026-05-06 19:37 | 48.36726 | 16.47376 | 4989 ft | 187 kts | 179° |
| 2026-05-06 19:37 | 48.35438 | 16.47815 | 4991 ft | 192 kts | 168° |
| 2026-05-06 19:37 | 48.34147 | 16.48380 | 4953 ft | 193 kts | 168° |
| 2026-05-06 19:37 | 48.33294 | 16.48749 | 4842 ft | 192 kts | 169° |
| 2026-05-06 19:38 | 48.31590 | 16.49480 | 4545 ft | 192 kts | 170° |
| 2026-05-06 19:38 | 48.30285 | 16.50037 | 4288 ft | 193 kts | 170° |
| 2026-05-06 19:38 | 48.29012 | 16.50580 | 4045 ft | 192 kts | 170° |
| 2026-05-06 19:38 | 48.27751 | 16.51119 | 3785 ft | 183 kts | 171° |
| 2026-05-06 19:39 | 48.26556 | 16.51630 | 3532 ft | 174 kts | 171° |
| 2026-05-06 19:39 | 48.25416 | 16.52116 | 3306 ft | 167 kts | 172° |
| 2026-05-06 19:39 | 48.24313 | 16.52584 | 3091 ft | 163 kts | 172° |
| 2026-05-06 19:39 | 48.23230 | 16.53044 | 2880 ft | 161 kts | 172° |
| 2026-05-06 19:40 | 48.22162 | 16.53497 | 2674 ft | 158 kts | 171° |
| 2026-05-06 19:40 | 48.21125 | 16.53939 | 2467 ft | 150 kts | 171° |
| 2026-05-06 19:40 | 48.20161 | 16.54350 | 2277 ft | 139 kts | 172° |
| 2026-05-06 19:40 | 48.19250 | 16.54736 | 2098 ft | 134 kts | 172° |
| 2026-05-06 19:41 | 48.18354 | 16.55115 | 1914 ft | 133 kts | 171° |
| 2026-05-06 19:41 | 48.17500 | 16.55478 | 1744 ft | 124 kts | 171° |
| 2026-05-06 19:41 | 48.16686 | 16.55823 | 1606 ft | 120 kts | 170° |
| 2026-05-06 19:41 | 48.15891 | 16.56159 | 1437 ft | 118 kts | 169° |
| 2026-05-06 19:42 | 48.15087 | 16.56499 | 1275 ft | 119 kts | 166° |
| 2026-05-06 19:42 | 48.14288 | 16.56837 | 1111 ft | 119 kts | 166° |
| 2026-05-06 19:42 | 48.13490 | 16.57175 | 956 ft | 118 kts | 166° |
| 2026-05-06 19:42 | 48.12715 | 16.57499 | 797 ft | 117 kts | 164° |
| 2026-05-06 19:43 | 48.11933 | 16.57834 | 659 ft | 117 kts | 163° |
| 2026-05-06 19:43 | 48.11222 | 16.58138 | 619 ft | 89 kts | 164° |
| 2026-05-06 19:43 | 48.10706 | 16.58358 | 620 ft | 67 kts | 164° |
| 2026-05-06 19:43 | 48.10425 | 16.58465 | 615 ft | 31 kts | 171° |
| 2026-05-06 19:44 | 48.10229 | 16.58440 | 610 ft | 28 kts | 195° |
| 2026-05-06 19:44 | 48.10112 | 16.58358 | 620 ft | 17 kts | 236° |
| 2026-05-06 19:44 | 48.10095 | 16.58270 | 612 ft | 0 kts | 256° |
| 2026-05-06 19:45 | 48.10094 | 16.58268 | 612 ft | 1 kts | 256° |
| 2026-05-06 19:46 | 48.10091 | 16.58231 | 615 ft | 9 kts | 271° |
| 2026-05-06 19:46 | 48.10133 | 16.58180 | 611 ft | 8 kts | 342° |
| 2026-05-06 19:46 | 48.10192 | 16.58154 | 621 ft | 9 kts | 344° |
| 2026-05-06 19:46 | 48.10249 | 16.58129 | 615 ft | 8 kts | 343° |
| 2026-05-06 19:47 | 48.10308 | 16.58104 | 617 ft | 9 kts | 344° |
| 2026-05-06 19:47 | 48.10368 | 16.58079 | 613 ft | 9 kts | 344° |
| 2026-05-06 19:47 | 48.10426 | 16.58054 | 623 ft | 9 kts | 344° |
| 2026-05-06 19:47 | 48.10484 | 16.58030 | 619 ft | 8 kts | 345° |
| 2026-05-06 19:48 | 48.10537 | 16.58009 | 622 ft | 8 kts | 345° |
| 2026-05-06 19:48 | 48.10596 | 16.57984 | 621 ft | 9 kts | 344° |
| 2026-05-06 19:48 | 48.10652 | 16.57960 | 622 ft | 8 kts | 344° |
| 2026-05-06 19:48 | 48.10725 | 16.57929 | 610 ft | 14 kts | 343° |
| 2026-05-06 19:49 | 48.10835 | 16.57882 | 616 ft | 19 kts | 344° |
| 2026-05-06 19:49 | 48.10974 | 16.57823 | 619 ft | 22 kts | 344° |
| 2026-05-06 19:49 | 48.11122 | 16.57760 | 617 ft | 23 kts | 344° |
| 2026-05-06 19:49 | 48.11277 | 16.57692 | 618 ft | 23 kts | 345° |
| 2026-05-06 19:50 | 48.11429 | 16.57632 | 614 ft | 22 kts | 344° |
| 2026-05-06 19:50 | 48.11573 | 16.57570 | 609 ft | 21 kts | 344° |
| 2026-05-06 19:50 | 48.11712 | 16.57512 | 617 ft | 20 kts | 345° |
| 2026-05-06 19:50 | 48.11804 | 16.57436 | 613 ft | 14 kts | 288° |
| 2026-05-06 19:51 | 48.11827 | 16.57300 | 616 ft | 13 kts | 296° |
| 2026-05-06 19:51 | 48.11879 | 16.57186 | 616 ft | 13 kts | 316° |
| 2026-05-06 19:51 | 48.11924 | 16.57073 | 613 ft | 12 kts | 296° |
| 2026-05-06 19:51 | 48.11960 | 16.56959 | 612 ft | 12 kts | 296° |
| 2026-05-06 19:52 | 48.11995 | 16.56852 | 624 ft | 11 kts | 296° |
| 2026-05-06 19:52 | 48.12035 | 16.56807 | 614 ft | 6 kts | 7° |
| 2026-05-06 19:52 | 48.12057 | 16.56819 | 610 ft | 1 kts | 25° |
| 2026-05-06 19:52 | 48.12065 | 16.56824 | 610 ft | 0 kts | 25° |